TimeCDT,TemperatureF,Dew PointF,Humidity,Sea Level PressureIn,VisibilityMPH,Wind Direction,Wind SpeedMPH,Gust SpeedMPH,PrecipitationIn,Events,Conditions,WindDirDegrees,DateUTC
12:15 AM,37.6,25.7,62,30.06,10.0,West,5.8,-,N/A,,Overcast,260,2012-10-06 05:15:00
12:35 AM,37.9,26.1,62,30.05,10.0,West,5.8,-,N/A,,Overcast,280,2012-10-06 05:35:00
12:55 AM,40.1,25.9,57,30.05,10.0,West,6.9,-,N/A,,Overcast,280,2012-10-06 05:55:00
1:15 AM,41.0,25.2,53,30.05,10.0,West,6.9,-,N/A,,Overcast,280,2012-10-06 06:15:00
1:35 AM,41.4,24.8,52,30.05,10.0,WNW,6.9,-,N/A,,Overcast,290,2012-10-06 06:35:00
1:55 AM,41.4,24.8,52,30.05,10.0,WNW,6.9,-,N/A,,Overcast,290,2012-10-06 06:55:00
2:15 AM,42.3,23.9,48,30.06,10.0,WNW,9.2,-,N/A,,Overcast,300,2012-10-06 07:15:00
2:35 AM,42.3,22.6,46,30.05,10.0,NW,11.5,-,N/A,,Overcast,320,2012-10-06 07:35:00
2:55 AM,42.1,22.3,45,30.05,10.0,WNW,12.7,18.4,N/A,,Overcast,300,2012-10-06 07:55:00
3:15 AM,41.9,22.8,47,30.05,10.0,WNW,10.4,-,N/A,,Overcast,290,2012-10-06 08:15:00
3:35 AM,40.6,23.7,51,30.05,10.0,WNW,9.2,-,N/A,,Mostly Cloudy,290,2012-10-06 08:35:00
3:55 AM,39.4,23.9,54,30.05,10.0,WNW,9.2,-,N/A,,Scattered Clouds,290,2012-10-06 08:55:00
4:15 AM,37.2,23.9,59,30.06,10.0,West,4.6,-,N/A,,Clear,280,2012-10-06 09:15:00
4:35 AM,35.8,24.4,63,30.06,10.0,West,5.8,-,N/A,,Mostly Cloudy,280,2012-10-06 09:35:00
4:55 AM,34.5,24.4,67,30.07,10.0,West,5.8,-,N/A,,Scattered Clouds,260,2012-10-06 09:55:00
5:15 AM,33.8,24.4,69,30.07,10.0,West,5.8,-,N/A,,Clear,270,2012-10-06 10:15:00
5:35 AM,33.4,24.8,71,30.08,10.0,West,5.8,-,N/A,,Mostly Cloudy,280,2012-10-06 10:35:00
5:55 AM,35.6,25.3,66,30.08,10.0,West,4.6,-,N/A,,Overcast,260,2012-10-06 10:55:00
6:15 AM,35.2,25.5,68,30.09,10.0,WNW,6.9,-,N/A,,Overcast,290,2012-10-06 11:15:00
6:35 AM,38.5,25.3,59,30.09,10.0,WNW,9.2,-,N/A,,Overcast,300,2012-10-06 11:35:00
6:55 AM,38.7,24.6,57,30.10,10.0,NW,15.0,21.9,N/A,,Overcast,320,2012-10-06 11:55:00
7:15 AM,39.2,24.8,56,30.10,10.0,WNW,13.8,18.4,N/A,,Overcast,300,2012-10-06 12:15:00
7:35 AM,39.4,24.8,56,30.10,10.0,WNW,16.1,19.6,N/A,,Overcast,300,2012-10-06 12:35:00
7:55 AM,39.6,25.0,56,30.11,10.0,WNW,9.2,-,N/A,,Overcast,300,2012-10-06 12:55:00
8:15 AM,40.1,25.3,56,30.11,10.0,WNW,10.4,-,N/A,,Overcast,300,2012-10-06 13:15:00
8:35 AM,40.5,25.3,55,30.12,10.0,WNW,13.8,17.3,N/A,,Overcast,300,2012-10-06 13:35:00
8:55 AM,41.0,25.5,54,30.13,10.0,WNW,11.5,-,N/A,,Overcast,300,2012-10-06 13:55:00
9:15 AM,41.7,25.7,53,30.13,10.0,WNW,10.4,-,N/A,,Overcast,290,2012-10-06 14:15:00
9:35 AM,42.3,25.0,50,30.13,10.0,NW,9.2,-,N/A,,Overcast,310,2012-10-06 14:35:00
9:55 AM,42.4,24.8,50,30.14,10.0,NW,12.7,17.3,N/A,,Overcast,310,2012-10-06 14:55:00
10:15 AM,42.4,24.8,50,30.14,10.0,WNW,13.8,-,N/A,,Overcast,300,2012-10-06 15:15:00
10:35 AM,42.4,25.2,50,30.15,10.0,NW,13.8,18.4,N/A,,Overcast,310,2012-10-06 15:35:00
10:55 AM,42.3,25.0,50,30.15,10.0,NNW,12.7,18.4,N/A,,Overcast,330,2012-10-06 15:55:00
11:15 AM,43.7,25.0,48,30.16,10.0,NW,13.8,17.3,N/A,,Overcast,310,2012-10-06 16:15:00
11:35 AM,43.5,24.3,47,30.17,10.0,NW,9.2,-,N/A,,Overcast,320,2012-10-06 16:35:00
11:55 AM,44.1,24.3,46,30.17,10.0,NW,11.5,-,N/A,,Overcast,320,2012-10-06 16:55:00
12:15 PM,45.5,25.0,45,30.17,10.0,NW,12.7,-,N/A,,Overcast,310,2012-10-06 17:15:00
12:35 PM,45.0,24.4,45,30.16,10.0,NNW,13.8,-,N/A,,Overcast,330,2012-10-06 17:35:00
12:55 PM,46.0,23.9,42,30.16,10.0,NW,11.5,19.6,N/A,,Overcast,310,2012-10-06 17:55:00
1:15 PM,46.2,24.3,42,30.15,10.0,NW,15.0,-,N/A,,Overcast,310,2012-10-06 18:15:00
1:35 PM,47.7,23.5,39,30.14,10.0,WNW,10.4,17.3,N/A,,Overcast,300,2012-10-06 18:35:00
1:55 PM,45.5,23.5,42,30.14,10.0,NW,11.5,20.7,N/A,,Overcast,320,2012-10-06 18:55:00
2:15 PM,45.7,22.8,41,30.15,10.0,NNW,10.4,17.3,N/A,,Overcast,330,2012-10-06 19:15:00
2:35 PM,45.7,22.5,40,30.15,10.0,NW,11.5,-,N/A,,Overcast,310,2012-10-06 19:35:00
2:55 PM,45.1,23.9,43,30.16,10.0,NW,10.4,18.4,N/A,,Overcast,310,2012-10-06 19:55:00
3:15 PM,44.6,23.7,44,30.16,10.0,NW,11.5,16.1,N/A,,Overcast,320,2012-10-06 20:15:00
3:35 PM,45.0,23.0,42,30.15,10.0,NW,8.1,-,N/A,,Overcast,320,2012-10-06 20:35:00
3:55 PM,44.6,23.4,43,30.15,10.0,North,8.1,-,N/A,,Overcast,350,2012-10-06 20:55:00
4:15 PM,44.6,23.0,43,30.15,10.0,NW,9.2,-,N/A,,Overcast,320,2012-10-06 21:15:00
4:35 PM,44.6,23.4,43,30.16,10.0,NW,9.2,-,N/A,,Overcast,320,2012-10-06 21:35:00
4:55 PM,44.2,23.4,44,30.16,10.0,NNW,10.4,-,N/A,,Overcast,330,2012-10-06 21:55:00
5:15 PM,43.9,23.2,44,30.17,10.0,NW,5.8,-,N/A,,Overcast,310,2012-10-06 22:15:00
5:35 PM,43.9,22.8,43,30.17,10.0,NW,5.8,-,N/A,,Overcast,320,2012-10-06 22:35:00
6:15 PM,43.0,23.5,46,30.18,10.0,West,5.8,-,N/A,,Overcast,280,2012-10-06 23:15:00
6:35 PM,42.8,23.9,47,30.18,10.0,West,4.6,-,N/A,,Overcast,280,2012-10-06 23:35:00
6:55 PM,42.4,23.9,48,30.18,10.0,West,6.9,-,N/A,,Overcast,280,2012-10-06 23:55:00
7:15 PM,42.4,23.9,48,30.19,10.0,West,5.8,-,N/A,,Overcast,280,2012-10-07 00:15:00
7:35 PM,42.3,24.4,49,30.19,10.0,West,4.6,-,N/A,,Overcast,260,2012-10-07 00:35:00
7:55 PM,42.1,24.4,50,30.19,10.0,West,5.8,-,N/A,,Overcast,280,2012-10-07 00:55:00
8:15 PM,41.5,25.2,52,30.19,10.0,West,5.8,-,N/A,,Overcast,270,2012-10-07 01:15:00
8:35 PM,41.5,24.8,51,30.19,10.0,WNW,4.6,-,N/A,,Overcast,290,2012-10-07 01:35:00
8:55 PM,41.4,25.0,52,30.19,10.0,WNW,5.8,-,N/A,,Overcast,290,2012-10-07 01:55:00
9:15 PM,41.9,24.4,50,30.18,10.0,WNW,6.9,-,N/A,,Overcast,300,2012-10-07 02:15:00
9:35 PM,41.9,24.6,50,30.18,10.0,WNW,6.9,-,N/A,,Overcast,300,2012-10-07 02:35:00
9:55 PM,41.9,24.3,50,30.19,10.0,WNW,5.8,-,N/A,,Overcast,300,2012-10-07 02:55:00
10:15 PM,41.5,24.3,50,30.19,10.0,WNW,5.8,-,N/A,,Overcast,300,2012-10-07 03:15:00
10:35 PM,41.4,24.8,52,30.19,10.0,WNW,4.6,-,N/A,,Overcast,300,2012-10-07 03:35:00
10:55 PM,41.0,25.2,53,30.19,10.0,WNW,5.8,-,N/A,,Overcast,290,2012-10-07 03:55:00
11:15 PM,40.5,25.5,55,30.19,10.0,WNW,5.8,-,N/A,,Overcast,290,2012-10-07 04:15:00
11:35 PM,40.5,25.3,55,30.19,10.0,West,4.6,-,N/A,,Overcast,280,2012-10-07 04:35:00
11:55 PM,40.1,25.7,56,30.19,10.0,West,4.6,-,N/A,,Overcast,280,2012-10-07 04:55:00